Glanamman, United Kingdom
Current Conditions -  °F | °C
As of 11:50 PM on Saturday 22 Nov 2014 (Local Time) from EGOP Reporting Station
Overcast Overcast  
Wind Chill: 44°   Ceiling: 8000
Heat Index: 46°   Visibility: 6mi
Dew Point: 45°   Wind: 6mph
Humidity: 93%   Direction: 320°NW
Pressure: 30.03"   Gusts: NA
Location:  51.8°N, 3.93°W
Report Text: EGOP 222350Z AUTO 32005KT 9999 // FEW042/// OVC080/// 08/07 Q1017
Loading
Personal Weather Stations






























Interactive Weather Map New forecast layout! Learn more

10-Day Weather Forecast

Advertisements
Track Severe Weather on mobile